Time;durP1;ratioP1;P1;durP2;ratioP2;P2;SDS_P1;SDS_P2;PMS_P1;PMS_P2;Temp;Humidity;BMP_temperature;BMP_pressure;BME280_temperature;BME280_humidity;BME280_pressure;Samples;Min_cycle;Max_cycle;Signal;HPM_P1;HPM_P2
2022/06/14 00:01:35;;;;;;;9.27;1.70;;;;;;;9.29;80.08;102304.16;5038994;28;20437;-89
2022/06/14 00:04:00;;;;;;;8.75;1.60;;;;;;;9.24;80.39;102295.94;5057232;28;20362;-90
2022/06/14 00:06:29;;;;;;;6.50;2.30;;;;;;;9.20;80.47;102298.25;5057088;28;20037;-90
2022/06/14 00:08:54;;;;;;;7.82;1.63;;;;;;;9.14;81.39;102291.06;5057491;28;20021;-90
2022/06/14 00:11:25;;;;;;;6.77;1.60;;;;;;;9.14;81.08;102301.75;5057911;28;20515;-91
2022/06/14 00:13:52;;;;;;;9.05;1.90;;;;;;;9.08;81.40;102305.28;5057731;28;20048;-89
2022/06/14 00:16:19;;;;;;;6.50;1.85;;;;;;;9.04;81.55;102298.72;5057136;28;20388;-90
2022/06/14 00:18:45;;;;;;;9.05;1.70;;;;;;;9.04;81.28;102296.03;5057349;28;20037;-90
2022/06/14 00:21:10;;;;;;;8.20;1.60;;;;;;;8.99;81.41;102291.34;5056573;28;20048;-89
2022/06/14 00:23:36;;;;;;;3.97;1.73;;;;;;;8.99;81.58;102298.53;5060581;28;20362;-90
2022/06/14 00:26:03;;;;;;;10.43;1.65;;;;;;;8.99;81.80;102303.88;5057137;28;20438;-91
2022/06/14 00:28:30;;;;;;;5.88;1.40;;;;;;;9.00;81.47;102290.31;5056727;28;20029;-91
2022/06/14 00:30:59;;;;;;;10.48;2.00;;;;;;;8.94;81.98;102297.31;5056370;28;20064;-91
2022/06/14 00:33:24;;;;;;;6.90;1.60;;;;;;;8.84;81.35;102294.25;5056506;28;20099;-90
2022/06/14 00:36:00;;;;;;;5.67;1.50;;;;;;;8.75;82.20;102292.84;5056694;28;20366;-89
2022/06/14 00:38:26;;;;;;;7.68;1.88;;;;;;;8.71;82.63;102297.78;5057100;28;20110;-89
2022/06/14 00:40:55;;;;;;;5.60;1.90;;;;;;;8.64;82.86;102292.44;5056689;28;20021;-89
2022/06/14 00:43:21;;;;;;;10.23;1.55;;;;;;;8.66;82.81;102289.59;5056898;28;20120;-90
2022/06/14 00:45:48;;;;;;;7.13;1.30;;;;;;;8.74;82.41;102296.56;5056676;28;20446;-90
2022/06/14 00:48:25;;;;;;;8.00;1.67;;;;;;;8.70;81.98;102298.81;5057488;28;20398;-88
2022/06/14 00:51:06;;;;;;;3.35;1.40;;;;;;;8.66;82.58;102292.25;5054506;28;20021;-89
2022/06/14 00:53:38;;;;;;;5.43;1.40;;;;;;;8.60;82.87;102291.22;5036443;28;20029;-90
2022/06/14 00:56:50;;;;;;;7.15;1.65;;;;;;;8.58;82.12;102282.56;5054630;28;20540;-90
2022/06/14 00:59:27;;;;;;;5.78;1.60;;;;;;;8.53;82.70;102273.56;5029256;28;20478;-90
2022/06/14 01:01:58;;;;;;;7.95;1.50;;;;;;;8.51;82.98;102281.78;5053199;28;20025;-90
2022/06/14 01:04:29;;;;;;;5.78;1.52;;;;;;;8.43;83.75;102268.59;5053732;28;20021;-90
2022/06/14 01:07:20;;;;;;;5.93;1.38;;;;;;;8.43;83.40;102279.28;5053522;28;20067;-90
2022/06/14 01:10:10;;;;;;;4.95;1.55;;;;;;;8.37;83.33;102285.47;5053194;28;20557;-90
2022/06/14 01:12:40;;;;;;;6.87;1.43;;;;;;;8.29;84.30;102273.16;5041397;28;20106;-90
2022/06/14 01:15:06;;;;;;;6.83;1.40;;;;;;;8.26;84.92;102274.38;5054444;28;20288;-90
2022/06/14 01:17:35;;;;;;;8.50;1.58;;;;;;;8.24;85.45;102284.44;5061299;28;20021;-90
2022/06/14 01:20:04;;;;;;;5.55;1.58;;;;;;;8.16;84.73;102279.31;5053775;28;20051;-90
2022/06/14 01:22:30;;;;;;;7.47;1.63;;;;;;;8.07;85.61;102272.53;5053210;28;20449;-89
2022/06/14 01:24:56;;;;;;;7.78;2.10;;;;;;;8.06;85.11;102273.56;5053293;28;20061;-90
2022/06/14 01:27:24;;;;;;;10.60;1.77;;;;;;;8.04;85.79;102273.78;5052796;28;20067;-90
2022/06/14 01:30:15;;;;;;;6.38;2.10;;;;;;;8.03;86.25;102280.94;5053124;28;20480;-90
2022/06/14 01:32:47;;;;;;;5.65;1.60;;;;;;;7.97;86.21;102273.78;5034967;28;20028;-90
2022/06/14 01:35:17;;;;;;;7.13;1.60;;;;;;;7.99;85.27;102268.22;5055556;28;20048;-90
2022/06/14 01:37:47;;;;;;;6.50;1.75;;;;;;;7.92;85.91;102262.88;5057242;28;20029;-90
2022/06/14 01:40:12;;;;;;;5.38;2.00;;;;;;;7.92;86.17;102281.56;5056694;28;20056;-91
2022/06/14 01:42:45;;;;;;;6.47;2.10;;;;;;;7.88;86.49;102275.81;5055970;28;20128;-90
2022/06/14 01:45:50;;;;;;;7.33;1.80;;;;;;;7.79;85.22;102260.22;5061349;28;20287;-90
2022/06/14 01:48:52;;;;;;;4.43;1.50;;;;;;;7.73;85.08;102262.66;5041080;28;20032;-91
2022/06/14 01:51:51;;;;;;;5.43;1.60;;;;;;;7.64;86.03;102257.72;5045069;28;20020;-90
2022/06/14 01:54:35;;;;;;;7.55;1.50;;;;;;;7.63;86.36;102261.41;5067193;28;20104;-90
2022/06/14 01:57:14;;;;;;;4.85;1.63;;;;;;;7.61;87.17;102255.44;5054586;28;20032;-90
2022/06/14 02:00:25;;;;;;;9.50;2.08;;;;;;;7.54;85.92;102261.63;5055109;28;20017;-90
2022/06/14 02:06:09;;;;;;;6.38;1.88;;;;;;;7.48;87.43;102267.75;5053330;28;20040;-91
2022/06/14 02:08:41;;;;;;;6.38;1.70;;;;;;;7.50;87.94;102262.19;5051927;28;20033;-90
2022/06/14 02:11:18;;;;;;;4.27;1.80;;;;;;;7.47;88.20;102254.63;5050674;28;20453;-91
2022/06/14 02:13:48;;;;;;;6.80;1.90;;;;;;;7.41;87.76;102251.72;5057523;28;20287;-92
2022/06/14 02:16:23;;;;;;;5.05;1.60;;;;;;;7.37;88.00;102247.81;5055345;28;20040;-90
2022/06/14 02:19:15;;;;;;;6.07;2.00;;;;;;;7.36;88.02;102248.03;5057075;28;20423;-90
2022/06/14 02:21:44;;;;;;;6.55;2.25;;;;;;;7.31;88.72;102248.59;5039563;28;20492;-91
2022/06/14 02:24:17;;;;;;;9.52;1.73;;;;;;;7.26;88.13;102248.41;5052451;28;20025;-91
2022/06/14 02:26:48;;;;;;;5.90;1.90;;;;;;;7.20;88.69;102242.03;5052255;28;20039;-90
2022/06/14 02:29:26;;;;;;;10.07;1.90;;;;;;;7.21;88.56;102232.19;5051995;28;20104;-89
2022/06/14 02:32:02;;;;;;;10.15;2.00;;;;;;;7.24;88.21;102229.94;5053128;28;20048;-90
2022/06/14 02:34:43;;;;;;;7.32;1.65;;;;;;;7.24;88.53;102237.13;5052065;28;20037;-91
2022/06/14 02:37:40;;;;;;;6.77;1.80;;;;;;;7.22;87.50;102239.16;5051732;28;20079;-91
2022/06/14 02:40:13;;;;;;;5.13;1.70;;;;;;;7.19;88.50;102239.56;5050207;28;20307;-91
2022/06/14 02:42:48;;;;;;;7.20;2.00;;;;;;;7.04;87.69;102224.53;5052262;28;20040;-91
2022/06/14 02:47:49;;;;;;;7.38;1.80;;;;;;;6.90;89.27;102206.88;5010051;28;20057;-91
2022/06/14 02:50:26;;;;;;;9.73;2.05;;;;;;;7.06;89.01;102219.84;5011250;28;20511;-91
2022/06/14 02:53:09;;;;;;;6.18;1.98;;;;;;;7.09;88.36;102222.13;5011942;28;20033;-90
2022/06/14 02:55:50;;;;;;;8.40;2.30;;;;;;;7.04;89.04;102224.53;5018336;28;20033;-91
2022/06/14 02:58:22;;;;;;;7.22;1.80;;;;;;;7.00;89.23;102223.28;5036892;28;20033;-91
2022/06/14 03:01:01;;;;;;;3.47;1.90;;;;;;;6.89;88.90;102229.19;5038443;28;20029;-89
2022/06/14 03:03:30;;;;;;;9.83;2.10;;;;;;;6.82;90.07;102229.97;5055471;28;20025;-89
2022/06/14 03:06:11;;;;;;;7.93;2.00;;;;;;;6.80;90.46;102234.69;5036230;28;20656;-90
2022/06/14 03:08:47;;;;;;;8.85;2.20;;;;;;;6.76;90.94;102228.09;5052176;28;20024;-91
2022/06/14 03:11:34;;;;;;;9.52;2.50;;;;;;;6.77;90.13;102229.75;5013844;28;20535;-89
2022/06/14 03:14:23;;;;;;;4.38;2.00;;;;;;;6.72;89.20;102234.03;5031133;28;20053;-90
2022/06/14 03:17:11;;;;;;;5.65;2.20;;;;;;;6.65;90.11;102228.66;5031069;28;20037;-91
2022/06/14 03:20:14;;;;;;;7.90;2.03;;;;;;;6.69;90.50;102232.59;5030557;28;20481;-93
2022/06/14 03:23:14;;;;;;;8.98;2.35;;;;;;;6.64;90.34;102230.53;5038531;28;20426;-93
2022/06/14 03:25:55;;;;;;;7.28;1.73;;;;;;;6.54;90.59;102221.25;5033125;28;20389;-92
2022/06/14 03:28:43;;;;;;;11.25;2.50;;;;;;;6.61;91.30;102230.91;5033301;28;20032;-94
2022/06/14 03:31:16;;;;;;;8.03;2.10;;;;;;;6.69;91.46;102227.25;5032215;28;20040;-93
2022/06/14 03:33:44;;;;;;;6.60;2.00;;;;;;;6.74;91.37;102235.50;5031589;28;20261;-93
2022/06/14 03:36:10;;;;;;;11.55;2.20;;;;;;;6.72;91.32;102229.53;5031503;28;20041;-93
2022/06/14 03:38:52;;;;;;;7.22;2.10;;;;;;;6.66;91.35;102227.66;5031949;28;20032;-92
2022/06/14 03:41:22;;;;;;;5.18;2.00;;;;;;;6.66;90.82;102233.78;5031049;28;20656;-94
2022/06/14 03:43:49;;;;;;;5.15;2.05;;;;;;;6.64;91.53;102235.00;5030910;28;20032;-93
2022/06/14 03:46:23;;;;;;;5.88;2.17;;;;;;;6.61;91.94;102235.41;5081098;22;20462;-94
2022/06/14 03:48:55;;;;;;;6.28;2.20;;;;;;;6.63;91.98;102233.38;5051069;28;20032;-92
2022/06/14 03:51:38;;;;;;;8.17;2.17;;;;;;;6.61;91.90;102222.09;5050688;28;20502;-92
2022/06/14 03:54:33;;;;;;;8.67;2.30;;;;;;;6.65;91.36;102226.00;5032947;28;20685;-93
2022/06/14 03:57:32;;;;;;;8.20;2.00;;;;;;;6.62;92.06;102223.72;5001647;28;20042;-92
2022/06/14 04:00:07;;;;;;;7.05;2.35;;;;;;;6.68;91.84;102236.28;5029321;28;20044;-92
2022/06/14 04:03:06;;;;;;;5.75;2.42;;;;;;;6.73;91.32;102233.00;5030774;28;20424;-92
2022/06/14 04:06:06;;;;;;;5.47;1.90;;;;;;;6.77;91.30;102240.41;5030842;28;20057;-93
2022/06/14 04:09:01;;;;;;;5.63;2.03;;;;;;;6.77;90.91;102232.41;5030800;28;20481;-94
2022/06/14 04:11:37;;;;;;;5.25;2.20;;;;;;;6.82;91.01;102240.66;5030426;28;20025;-94
2022/06/14 04:14:21;;;;;;;7.35;2.55;;;;;;;6.87;90.57;102242.72;5030982;28;20025;-93
2022/06/14 04:17:10;;;;;;;6.82;2.40;;;;;;;6.89;91.41;102250.53;5033703;28;20033;-93
2022/06/14 04:19:41;;;;;;;5.73;2.03;;;;;;;6.96;91.31;102246.88;5033708;28;20028;-93
2022/06/14 04:22:36;;;;;;;4.10;2.27;;;;;;;7.02;91.13;102247.91;5030776;28;20363;-93
2022/06/14 04:25:22;;;;;;;8.02;2.28;;;;;;;7.41;90.98;102246.41;5030394;28;20037;-93
2022/06/14 04:28:00;;;;;;;9.85;2.40;;;;;;;7.67;90.14;102255.47;5034978;28;20025;-93
2022/06/14 04:30:30;;;;;;;7.68;2.28;;;;;;;7.65;89.06;102254.88;5034122;28;20036;-94
2022/06/14 04:33:07;;;;;;;8.30;2.10;;;;;;;7.61;88.63;102258.13;5034665;28;20497;-94
2022/06/14 04:35:41;;;;;;;7.80;2.35;;;;;;;7.60;89.23;102251.13;5034200;28;20116;-93
2022/06/14 04:38:16;;;;;;;6.82;2.55;;;;;;;7.57;89.59;102245.22;5041539;28;20049;-93
2022/06/14 04:41:06;;;;;;;7.05;2.20;;;;;;;7.60;89.66;102254.66;5041327;28;20021;-92
2022/06/14 04:43:54;;;;;;;3.97;1.95;;;;;;;7.76;89.88;102263.28;5025550;28;20493;-92
2022/06/14 04:46:30;;;;;;;6.70;2.43;;;;;;;8.15;88.90;102245.63;5034410;28;20036;-94
2022/06/14 04:49:06;;;;;;;8.03;2.43;;;;;;;9.26;87.44;102253.75;5034388;28;20639;-93
2022/06/14 04:51:35;;;;;;;6.70;2.60;;;;;;;11.28;82.48;102255.44;5033636;28;20378;-93
2022/06/14 04:54:19;;;;;;;6.47;2.60;;;;;;;13.11;75.43;102262.03;5034221;28;20401;-94
2022/06/14 04:57:02;;;;;;;7.35;2.50;;;;;;;14.61;68.58;102253.66;5033962;28;20568;-93
2022/06/14 04:59:35;;;;;;;5.85;2.30;;;;;;;15.92;63.81;102262.84;5035184;28;20090;-93
2022/06/14 05:02:11;;;;;;;11.20;2.35;;;;;;;16.89;61.14;102267.16;5034455;28;20064;-93
2022/06/14 05:04:45;;;;;;;6.05;2.33;;;;;;;17.63;57.03;102265.19;5033968;28;20051;-91
2022/06/14 05:07:16;;;;;;;7.82;2.55;;;;;;;18.37;53.64;102272.97;5016675;28;20030;-94
2022/06/14 05:09:53;;;;;;;9.38;3.00;;;;;;;18.99;53.07;102272.75;5033621;28;20116;-91
2022/06/14 05:12:27;;;;;;;8.63;2.87;;;;;;;19.52;50.49;102280.31;5033367;28;20099;-92
2022/06/14 05:15:02;;;;;;;11.17;3.13;;;;;;;19.82;50.22;102266.72;5033728;28;20774;-92
2022/06/14 05:17:33;;;;;;;12.07;2.92;;;;;;;20.21;48.44;102273.19;5035136;28;20029;-91
2022/06/14 05:19:58;;;;;;;7.10;3.05;;;;;;;20.55;47.80;102280.44;5036194;28;20561;-92
2022/06/14 05:22:40;;;;;;;9.65;3.15;;;;;;;20.77;48.96;102279.91;5049842;28;20036;-90
2022/06/14 05:25:07;;;;;;;9.07;3.65;;;;;;;20.95;45.88;102275.59;5046931;28;20109;-93
2022/06/14 05:27:51;;;;;;;10.85;2.92;;;;;;;21.17;48.72;102283.19;5035721;28;20025;-91
2022/06/14 05:30:35;;;;;;;13.87;2.87;;;;;;;21.46;44.48;102275.94;5034312;28;20037;-93
2022/06/14 05:33:28;;;;;;;9.37;3.60;;;;;;;21.58;47.02;102279.00;5034155;28;20291;-93
2022/06/14 05:36:25;;;;;;;10.68;2.97;;;;;;;21.26;45.91;102282.53;5033283;28;20025;-92
2022/06/14 05:39:08;;;;;;;10.05;2.70;;;;;;;20.73;46.00;102285.09;5033956;28;20099;-92
2022/06/14 05:41:42;;;;;;;13.18;3.55;;;;;;;20.67;46.85;102282.75;5034260;28;20108;-92
2022/06/14 05:44:23;;;;;;;7.30;3.10;;;;;;;20.96;46.88;102277.22;5034597;28;20108;-91
2022/06/14 05:46:56;;;;;;;8.57;3.10;;;;;;;20.95;46.47;102286.50;5037342;28;20032;-92
2022/06/14 05:49:32;;;;;;;12.07;3.50;;;;;;;20.86;47.37;102282.78;5037455;28;20025;-93
2022/06/14 05:52:08;;;;;;;8.80;3.80;;;;;;;20.80;46.89;102286.69;5037829;28;20045;-92
2022/06/14 05:54:59;;;;;;;10.27;3.70;;;;;;;20.79;46.70;102277.72;5057497;28;20086;-92
2022/06/14 05:57:39;;;;;;;13.87;3.83;;;;;;;20.69;47.43;102283.25;5026140;28;20033;-93
2022/06/14 06:00:29;;;;;;;10.57;3.63;;;;;;;20.31;48.91;102289.41;5036215;28;20294;-92
2022/06/14 06:03:31;;;;;;;10.80;3.75;;;;;;;19.82;49.22;102278.41;5035648;28;20041;-92
2022/06/14 06:06:05;;;;;;;8.98;3.35;;;;;;;19.36;50.11;102292.34;5033386;28;20040;-93
2022/06/14 06:08:34;;;;;;;7.78;3.55;;;;;;;18.83;51.03;102291.00;5033206;28;20025;-92
2022/06/14 06:11:06;;;;;;;11.63;3.88;;;;;;;18.51;52.94;102294.91;5032715;28;20473;-92
2022/06/14 06:13:49;;;;;;;10.65;3.90;;;;;;;18.09;53.62;102293.38;5037379;28;20055;-92
2022/06/14 06:16:29;;;;;;;11.50;3.80;;;;;;;17.71;55.75;102290.94;5032468;28;20061;-93
2022/06/14 06:19:05;;;;;;;9.77;3.83;;;;;;;17.44;56.12;102288.47;5014380;28;20087;-92
2022/06/14 06:21:39;;;;;;;18.90;4.20;;;;;;;17.19;57.43;102290.84;5032370;28;20033;-93
2022/06/14 06:24:20;;;;;;;12.03;4.13;;;;;;;16.87;56.79;102301.81;5032622;28;20102;-93
2022/06/14 06:26:55;;;;;;;13.97;3.83;;;;;;;16.53;58.29;102297.59;5032363;28;20288;-92
2022/06/14 06:29:28;;;;;;;10.48;4.05;;;;;;;16.22;59.17;102291.19;5032965;28;20075;-93
2022/06/14 06:31:54;;;;;;;10.48;3.90;;;;;;;16.05;60.24;102287.56;5032585;28;20385;-92
2022/06/14 06:34:20;;;;;;;8.73;3.22;;;;;;;15.92;59.48;102292.59;5033478;28;20029;-92
2022/06/14 06:36:54;;;;;;;8.83;3.37;;;;;;;15.80;59.45;102284.63;5014059;28;20037;-92
2022/06/14 06:39:44;;;;;;;13.43;3.30;;;;;;;15.72;59.27;102292.13;5032406;28;20018;-92
2022/06/14 06:42:21;;;;;;;12.40;3.40;;;;;;;15.62;59.22;102297.44;5031510;28;20677;-92
2022/06/14 06:44:53;;;;;;;8.20;3.00;;;;;;;15.59;57.76;102293.38;5054181;22;20045;-91
2022/06/14 06:47:54;;;;;;;12.32;2.85;;;;;;;15.68;60.28;102304.53;5051882;28;20029;-92
2022/06/14 06:50:34;;;;;;;11.25;3.33;;;;;;;15.63;58.34;102306.38;4996201;28;20041;-92
2022/06/14 06:53:11;;;;;;;11.52;3.13;;;;;;;15.55;59.77;102294.16;5052278;28;20108;-92
2022/06/14 06:55:59;;;;;;;8.18;3.53;;;;;;;15.52;58.56;102295.44;5052350;28;20081;-92
2022/06/14 06:58:28;;;;;;;6.47;3.28;;;;;;;15.33;58.07;102299.59;5052593;28;20033;-92
2022/06/14 07:00:57;;;;;;;10.47;3.47;;;;;;;15.45;58.17;102290.25;5051413;28;20510;-91
2022/06/14 07:03:45;;;;;;;9.70;3.70;;;;;;;15.54;59.81;102287.09;5051563;28;20279;-91
2022/06/14 07:06:21;;;;;;;8.68;3.10;;;;;;;15.62;56.94;102296.63;5051454;28;20033;-91
2022/06/14 07:09:03;;;;;;;6.47;1.90;;;;;;;15.65;55.25;102298.81;5051580;28;20109;-92
2022/06/14 07:12:04;;;;;;;6.13;2.13;;;;;;;15.67;56.20;102292.09;5051395;28;20025;-92
2022/06/14 07:14:37;;;;;;;4.70;2.05;;;;;;;15.63;53.63;102287.47;5047186;28;20507;-91
2022/06/14 07:17:28;;;;;;;8.90;2.60;;;;;;;15.81;53.64;102289.78;5052003;28;20043;-91
2022/06/14 07:20:01;;;;;;;5.15;1.55;;;;;;;15.80;50.16;102290.84;5052419;28;20079;-91
2022/06/14 07:22:50;;;;;;;7.28;1.60;;;;;;;15.87;53.17;102283.38;5051903;28;20052;-91
2022/06/14 07:25:21;;;;;;;8.98;1.35;;;;;;;16.01;51.00;102294.56;5043954;28;20124;-91
2022/06/14 07:27:54;;;;;;;3.03;1.10;;;;;;;16.19;47.57;102287.09;5056191;28;20500;-92
2022/06/14 07:30:26;;;;;;;9.03;1.90;;;;;;;16.39;49.67;102297.25;5052087;28;20291;-90
2022/06/14 07:32:55;;;;;;;5.28;1.70;;;;;;;16.50;50.68;102285.41;5052107;28;20036;-91
2022/06/14 07:35:45;;;;;;;6.78;1.80;;;;;;;16.64;50.74;102293.03;5057925;28;20037;-91
2022/06/14 07:38:36;;;;;;;7.05;1.85;;;;;;;16.69;50.14;102287.66;5038267;28;20116;-91
2022/06/14 07:41:07;;;;;;;6.22;1.65;;;;;;;16.72;47.98;102294.44;5054230;28;20040;-91
2022/06/14 07:43:50;;;;;;;5.75;1.40;;;;;;;16.88;49.54;102292.63;5051132;28;20025;-92
2022/06/14 07:46:26;;;;;;;5.75;1.80;;;;;;;16.80;47.69;102285.81;5050911;28;20021;-91
2022/06/14 07:49:08;;;;;;;8.18;1.70;;;;;;;16.93;48.98;102284.53;5050979;28;20071;-91
2022/06/14 07:51:40;;;;;;;5.25;2.00;;;;;;;17.19;47.79;102295.44;5050491;28;20032;-91
2022/06/14 07:54:22;;;;;;;4.77;1.40;;;;;;;17.54;48.76;102293.88;5051395;28;20036;-91
2022/06/14 07:56:56;;;;;;;8.33;2.20;;;;;;;17.54;47.66;102294.72;5032756;28;20300;-91
2022/06/14 07:59:25;;;;;;;7.35;2.10;;;;;;;17.54;47.57;102283.88;5050980;28;20021;-92
2022/06/14 08:02:03;;;;;;;5.63;1.92;;;;;;;17.64;48.41;102293.06;5053876;28;20044;-92
2022/06/14 08:04:35;;;;;;;5.88;1.48;;;;;;;17.63;47.14;102292.28;5054860;28;20036;-92
2022/06/14 08:07:14;;;;;;;11.05;1.75;;;;;;;17.65;47.14;102284.69;5054809;28;20047;-92
2022/06/14 08:09:45;;;;;;;7.05;1.85;;;;;;;17.80;46.48;102280.34;5055206;28;20032;-92
2022/06/14 08:12:31;;;;;;;8.70;1.90;;;;;;;18.05;47.90;102284.16;5053973;28;20141;-91
2022/06/14 08:15:05;;;;;;;6.53;1.60;;;;;;;18.08;45.08;102276.28;5054432;28;20021;-91
2022/06/14 08:17:54;;;;;;;3.97;1.70;;;;;;;18.26;43.92;102285.75;5036129;28;20029;-91
2022/06/14 08:20:26;;;;;;;4.47;1.23;;;;;;;18.30;45.38;102278.69;5053713;28;20045;-93
2022/06/14 08:22:56;;;;;;;6.53;1.40;;;;;;;18.36;44.35;102270.53;5054402;28;20279;-92
2022/06/14 08:25:30;;;;;;;4.90;1.75;;;;;;;18.42;44.45;102275.66;5054378;28;20091;-91
2022/06/14 08:28:09;;;;;;;3.83;2.10;;;;;;;18.55;45.64;102274.28;5054581;28;20167;-93
2022/06/14 08:30:38;;;;;;;4.72;2.15;;;;;;;18.33;44.78;102271.09;5058863;28;20052;-92
2022/06/14 08:33:37;;;;;;;6.25;2.03;;;;;;;18.46;46.95;102275.91;5044286;28;20128;-92
2022/06/14 08:36:09;;;;;;;5.43;2.00;;;;;;;18.44;46.25;102267.28;5054293;28;20109;-92
2022/06/14 08:38:41;;;;;;;6.25;2.25;;;;;;;18.46;46.04;102270.50;5054088;28;20059;-92
2022/06/14 08:41:34;;;;;;;5.70;1.92;;;;;;;18.48;46.54;102264.81;5053527;28;20043;-92
2022/06/14 08:44:09;;;;;;;4.60;1.50;;;;;;;18.54;45.20;102272.66;5053532;28;20124;-92
2022/06/14 08:47:01;;;;;;;6.07;1.67;;;;;;;18.58;45.84;102271.00;5054624;28;20025;-92
2022/06/14 08:50:06;;;;;;;6.83;1.57;;;;;;;18.62;47.13;102269.34;5055547;28;20268;-93
2022/06/14 08:53:02;;;;;;;5.15;1.60;;;;;;;18.72;44.95;102273.13;5053617;28;20081;-93
2022/06/14 08:55:42;;;;;;;8.55;2.10;;;;;;;18.62;45.62;102268.56;5053890;28;20064;-92
2022/06/14 08:58:45;;;;;;;5.63;1.50;;;;;;;18.85;45.99;102277.94;5055972;28;20032;-92
2022/06/14 09:01:51;;;;;;;4.85;1.80;;;;;;;18.94;45.17;102270.03;5053568;28;20032;-93
2022/06/14 09:04:54;;;;;;;8.35;1.85;;;;;;;19.07;45.61;102268.63;5053685;28;20435;-94
2022/06/14 09:07:54;;;;;;;5.60;1.50;;;;;;;19.25;44.88;102263.63;5053840;28;20040;-93
2022/06/14 09:10:57;;;;;;;6.07;1.52;;;;;;;19.43;44.91;102259.44;5053542;28;20492;-91
2022/06/14 09:14:00;;;;;;;5.22;1.80;;;;;;;19.62;44.83;102268.53;5053542;28;20029;-92
2022/06/14 09:16:48;;;;;;;4.40;1.80;;;;;;;19.86;44.42;102264.25;5053469;28;20063;-92
2022/06/14 09:20:03;;;;;;;6.27;2.27;;;;;;;19.95;45.61;102259.84;5053687;28;20272;-93
2022/06/14 09:22:52;;;;;;;6.55;1.67;;;;;;;19.94;43.40;102253.59;5045604;28;20096;-92
2022/06/14 09:25:36;;;;;;;5.10;1.80;;;;;;;20.14;44.09;102257.22;5055002;28;20455;-93
2022/06/14 09:28:25;;;;;;;5.57;1.67;;;;;;;20.29;44.01;102261.66;5060222;28;20029;-93
2022/06/14 09:30:53;;;;;;;4.75;1.63;;;;;;;20.47;43.01;102259.28;5063451;28;20047;-92
2022/06/14 09:34:06;;;;;;;4.78;1.80;;;;;;;20.56;42.46;102258.34;5060518;28;20033;-93
2022/06/14 09:36:38;;;;;;;5.07;1.75;;;;;;;20.53;42.60;102255.41;4978854;28;20033;-92
2022/06/14 09:39:51;;;;;;;6.00;1.52;;;;;;;20.63;43.18;102255.28;5036150;28;20035;-90
2022/06/14 09:42:47;;;;;;;4.22;1.45;;;;;;;20.75;41.98;102251.31;5054543;28;20044;-92
2022/06/14 09:45:49;;;;;;;11.27;2.70;;;;;;;20.71;42.40;102248.38;5053400;28;20123;-92
2022/06/14 09:48:50;;;;;;;6.00;2.30;;;;;;;20.95;42.32;102247.53;5053539;28;20282;-92
2022/06/14 09:51:28;;;;;;;4.25;1.60;;;;;;;21.26;42.57;102241.66;5014686;28;20091;-92
2022/06/14 09:54:31;;;;;;;6.10;2.17;;;;;;;21.27;41.89;102240.53;5053884;28;20387;-94
2022/06/14 09:57:17;;;;;;;4.80;2.10;;;;;;;21.06;41.42;102234.56;5054117;28;20392;-93
2022/06/14 10:00:16;;;;;;;7.70;1.90;;;;;;;20.99;41.36;102235.78;5064898;28;20020;-93
2022/06/14 10:03:05;;;;;;;5.45;1.92;;;;;;;21.11;41.49;102221.66;5076964;28;20029;-92
2022/06/14 10:05:33;;;;;;;7.25;2.10;;;;;;;21.15;41.86;102227.34;5065182;28;20033;-93
2022/06/14 10:08:20;;;;;;;5.45;2.10;;;;;;;21.40;41.86;102225.31;5056749;28;20087;-93
2022/06/14 10:10:45;;;;;;;5.28;2.05;;;;;;;21.71;41.27;102220.19;5054184;28;20035;-93
2022/06/14 10:13:32;;;;;;;5.40;2.07;;;;;;;21.73;40.17;102230.78;5053287;28;20116;-93
2022/06/14 10:16:09;;;;;;;5.95;2.20;;;;;;;21.41;40.02;102227.75;5053096;28;20121;-92
2022/06/14 10:18:44;;;;;;;6.70;2.10;;;;;;;21.28;40.04;102223.03;5052783;28;20024;-93
2022/06/14 10:21:13;;;;;;;5.50;1.97;;;;;;;21.65;40.75;102226.81;5052514;28;20283;-92
2022/06/14 10:24:02;;;;;;;5.75;1.90;;;;;;;21.87;41.11;102211.72;5052206;28;20352;-92
2022/06/14 10:29:50;;;;;;;6.82;1.92;;;;;;;22.08;38.69;102206.69;5052560;28;20048;-90
2022/06/14 10:32:34;;;;;;;9.80;2.38;;;;;;;22.05;39.18;102208.09;5051198;28;20079;-92
2022/06/14 10:35:17;;;;;;;6.65;2.03;;;;;;;22.17;40.22;102204.84;5051454;28;20025;-92
2022/06/14 10:38:06;;;;;;;5.35;2.10;;;;;;;22.37;38.55;102200.09;5051667;28;20633;-91
2022/06/14 10:40:47;;;;;;;5.82;1.95;;;;;;;22.18;37.04;102197.50;5057244;28;20033;-91
2022/06/14 10:43:24;;;;;;;6.15;2.20;;;;;;;22.35;37.80;102189.50;5067682;28;20029;-93
2022/06/14 10:45:57;;;;;;;6.23;2.37;;;;;;;22.20;37.96;102184.31;5076152;28;20017;-90
2022/06/14 10:48:41;;;;;;;7.07;2.40;;;;;;;22.47;39.40;102186.25;5075968;28;20279;-90
2022/06/14 10:51:25;;;;;;;4.68;2.15;;;;;;;22.31;37.79;102184.94;5076250;28;20093;-91
2022/06/14 10:54:28;;;;;;;6.55;2.30;;;;;;;22.47;38.93;102182.72;5059836;28;20029;-92
2022/06/14 10:57:13;;;;;;;5.40;2.33;;;;;;;22.63;39.32;102183.19;5049607;28;20051;-92
2022/06/14 11:00:00;;;;;;;6.82;2.30;;;;;;;22.66;38.73;102174.38;5053962;28;20036;-93
2022/06/14 11:02:41;;;;;;;7.32;2.50;;;;;;;22.71;38.71;102174.25;5054225;28;20112;-92
2022/06/14 11:05:25;;;;;;;6.35;2.28;;;;;;;22.60;37.30;102170.94;5053766;28;20112;-93
2022/06/14 11:08:15;;;;;;;6.82;2.10;;;;;;;22.78;38.06;102171.91;5052776;28;20072;-93
2022/06/14 11:11:06;;;;;;;5.03;1.80;;;;;;;23.01;37.89;102165.66;5051146;28;20649;-93
2022/06/14 11:13:37;;;;;;;6.07;2.50;;;;;;;23.04;37.27;102162.31;5052229;28;20029;-92
2022/06/14 11:16:10;;;;;;;4.57;2.10;;;;;;;22.73;36.10;102161.09;5051129;28;20283;-92
2022/06/14 11:19:06;;;;;;;6.25;1.95;;;;;;;22.60;37.51;102153.75;5053213;28;20021;-90
2022/06/14 11:22:00;;;;;;;4.05;1.88;;;;;;;22.91;38.43;102158.50;5051403;28;20039;-92
2022/06/14 11:24:50;;;;;;;6.45;2.60;;;;;;;22.91;38.43;102153.03;5051263;28;20029;-93
2022/06/14 11:27:42;;;;;;;4.97;2.45;;;;;;;23.21;37.93;102158.88;5050906;28;20044;-93
2022/06/14 11:30:38;;;;;;;3.38;2.03;;;;;;;23.66;37.53;102155.25;5050637;28;20081;-93
2022/06/14 11:33:28;;;;;;;5.40;2.33;;;;;;;23.69;36.17;102147.25;5050348;28;20489;-93
2022/06/14 11:36:13;;;;;;;6.93;2.63;;;;;;;23.38;36.01;102145.31;5051287;28;20054;-92
2022/06/14 11:39:20;;;;;;;4.45;2.10;;;;;;;23.41;35.91;102139.22;5053274;28;20082;-93
2022/06/14 11:41:50;;;;;;;7.17;2.27;;;;;;;23.30;35.21;102137.88;5057965;28;20140;-92
2022/06/14 11:44:42;;;;;;;7.53;3.07;;;;;;;23.11;35.40;102132.59;5052446;28;20513;-92
2022/06/14 11:47:28;;;;;;;10.95;2.67;;;;;;;23.22;36.33;102134.00;5030989;28;20045;-92
2022/06/14 11:50:15;;;;;;;8.65;2.55;;;;;;;23.25;35.82;102108.75;5052911;28;20588;-92
2022/06/14 11:52:56;;;;;;;5.72;2.83;;;;;;;23.61;35.77;102112.44;5059874;28;20039;-92
2022/06/14 11:55:27;;;;;;;7.82;2.90;;;;;;;23.54;36.01;102120.31;5057853;28;20068;-94
2022/06/14 11:58:19;;;;;;;5.95;2.90;;;;;;;23.53;35.52;102115.97;5051252;28;20029;-95
2022/06/14 12:00:48;;;;;;;6.15;2.70;;;;;;;23.69;35.26;102119.06;5050435;28;20029;-94
2022/06/14 12:03:27;;;;;;;3.88;2.45;;;;;;;23.58;34.75;102113.88;5050848;28;20025;-92
2022/06/14 12:06:05;;;;;;;5.72;2.88;;;;;;;23.78;34.41;102116.34;5050751;28;20095;-93
2022/06/14 12:09:18;;;;;;;8.80;2.60;;;;;;;24.10;34.18;102111.66;5050992;28;20021;-93
2022/06/14 12:11:55;;;;;;;8.47;3.30;;;;;;;24.08;35.12;102116.63;5050418;28;20767;-93
2022/06/14 12:14:38;;;;;;;6.68;2.67;;;;;;;24.20;36.46;102116.81;5051543;28;20021;-92
2022/06/14 12:17:17;;;;;;;8.00;3.33;;;;;;;24.22;35.46;102111.81;5057124;28;20063;-92
2022/06/14 12:19:46;;;;;;;8.60;3.50;;;;;;;24.06;34.95;102107.94;5056766;28;20714;-93
2022/06/14 12:22:29;;;;;;;7.78;3.63;;;;;;;23.69;35.27;102108.13;5054676;28;20458;-92
2022/06/14 12:27:59;;;;;;;7.68;3.63;;;;;;;23.88;35.11;102105.13;5052064;28;20044;-93
2022/06/14 12:30:28;;;;;;;7.15;2.88;;;;;;;23.87;33.21;102115.25;5051222;28;20087;-93
2022/06/14 12:33:01;;;;;;;7.57;3.30;;;;;;;23.83;35.10;102086.91;5051033;28;20067;-92
2022/06/14 12:35:35;;;;;;;5.30;2.70;;;;;;;24.10;34.68;102097.97;5050652;28;20061;-93
2022/06/14 12:38:03;;;;;;;7.80;3.37;;;;;;;24.31;34.36;102092.66;5051137;28;20264;-93
2022/06/14 12:40:41;;;;;;;9.73;3.53;;;;;;;24.30;33.85;102099.25;5051746;28;20024;-92